Peotone Weather
Station Historical Data
 
Daily Summary for August 17, 2017 Units:  English    Metric   Both
« Previous Day
Next Day »
Daily Weekly Monthly Yearly Custom
  Current: High: Low: Average:
Temperature: 75.1 °F 82.9 °F 70.7 °F 75.6 °F
Dew Point: 69.2 °F 73.5 °F 68.8 °F 70.4 °F
Humidity: 82% 94% 66% 85%
Wind Speed: 2.3mph 20.7mph 0.0mph 7.3mph
Wind Gust: 3.4mph 23.0mph - -
WindSW - - SSW
Pressure: 29.75 in 29.82 in 29.72 in -
Precipitation: 0.00 in      
Historical Graphs
 
 
Tabular Data for August 17, 2017
Time Temperature Dew Point Pressure Wind Wind Speed Wind Gust Humidity Rainfall Rate (Hourly) solar Conditions
00:00 75.8 °F 73.3 °F 29.82 in SSE 5.8 mph 12.6 mph 92% 0.00 in 0.00 W/m2
00:05 75.8 °F 73.3 °F 29.82 in South 4.6 mph 13.8 mph 92% 0.00 in 0.00 W/m2
00:10 75.7 °F 73.2 °F 29.82 in SSE 4.6 mph 12.6 mph 92% 0.00 in 0.00 W/m2
00:15 75.7 °F 73.2 °F 29.81 in SSE 5.8 mph 11.5 mph 92% 0.00 in 0.00 W/m2
00:20 75.7 °F 73.5 °F 29.81 in South 8.1 mph 12.6 mph 93% 0.00 in 0.00 W/m2
00:25 75.8 °F 73.3 °F 29.81 in SSE 3.4 mph 11.5 mph 92% 0.00 in 0.00 W/m2
00:30 75.7 °F 73.2 °F 29.81 in South 6.9 mph 10.3 mph 92% 0.00 in 0.00 W/m2
00:35 75.7 °F 73.2 °F 29.81 in South 5.8 mph 9.2 mph 92% 0.00 in 0.00 W/m2
00:36 75.7 °F 73.2 °F 29.81 in SSW 2.3 mph 9.2 mph 92% 0.00 in 0.00 W/m2
00:40 75.7 °F 73.2 °F 29.81 in SSE 1.1 mph 11.5 mph 92% 0.00 in 0.00 W/m2
00:41 75.7 °F 73.2 °F 29.81 in SSE 4.6 mph 11.5 mph 92% 0.00 in 0.00 W/m2
00:45 75.6 °F 73.1 °F 29.80 in South 4.6 mph 9.2 mph 92% 0.00 in 0.00 W/m2
00:46 75.6 °F 73.1 °F 29.80 in South 2.3 mph 9.2 mph 92% 0.00 in 0.00 W/m2
00:50 75.5 °F 73.0 °F 29.80 in South 5.8 mph 10.4 mph 92% 0.00 in 0.00 W/m2
00:51 75.5 °F 73.0 °F 29.80 in South 3.4 mph 10.3 mph 92% 0.00 in 0.00 W/m2
00:55 75.4 °F 72.9 °F 29.80 in South 3.5 mph 10.4 mph 92% 0.00 in 0.00 W/m2
00:56 75.4 °F 72.9 °F 29.80 in SSE 3.4 mph 10.3 mph 92% 0.00 in 0.00 W/m2
01:00 75.3 °F 72.8 °F 29.80 in South 6.9 mph 10.4 mph 92% 0.00 in 0.00 W/m2
01:01 75.3 °F 72.8 °F 29.80 in South 4.6 mph 10.3 mph 92% 0.00 in 0.00 W/m2
01:05 75.1 °F 72.6 °F 29.80 in South 3.5 mph 11.5 mph 92% 0.00 in 0.00 W/m2
01:06 75.2 °F 72.7 °F 29.80 in South 4.6 mph 11.5 mph 92% 0.00 in 0.00 W/m2
01:10 75.0 °F 72.5 °F 29.80 in South 6.9 mph 11.5 mph 92% 0.00 in 0.00 W/m2
01:11 75.0 °F 72.5 °F 29.80 in SSE 6.9 mph 11.5 mph 92% 0.00 in 0.00 W/m2
01:15 74.9 °F 72.4 °F 29.79 in SSE 4.6 mph 9.2 mph 92% 0.00 in 0.00 W/m2
01:16 74.9 °F 72.4 °F 29.79 in South 9.2 mph 9.2 mph 92% 0.00 in 0.00 W/m2
01:20 74.8 °F 72.0 °F 29.79 in South 1.1 mph 9.2 mph 91% 0.00 in 0.00 W/m2
01:21 74.8 °F 72.3 °F 29.79 in South 3.4 mph 9.2 mph 92% 0.00 in 0.00 W/m2
01:25 74.6 °F 71.8 °F 29.79 in SSE 1.1 mph 6.9 mph 91% 0.00 in 0.00 W/m2
01:26 74.6 °F 71.8 °F 29.79 in SSE 1.1 mph 6.9 mph 91% 0.00 in 0.00 W/m2
01:30 74.4 °F 71.6 °F 29.79 in SSE 1.1 mph 11.5 mph 91% 0.00 in 0.00 W/m2
01:31 74.4 °F 71.6 °F 29.79 in SSE 3.4 mph 11.5 mph 91% 0.00 in 0.00 W/m2
01:35 74.3 °F 71.5 °F 29.78 in South 1.1 mph 11.5 mph 91% 0.00 in 0.00 W/m2
01:36 74.3 °F 71.5 °F 29.78 in South 3.4 mph 11.5 mph 91% 0.00 in 0.00 W/m2
01:40 74.2 °F 71.4 °F 29.79 in South 4.6 mph 10.4 mph 91% 0.00 in 0.00 W/m2
01:41 74.2 °F 71.4 °F 29.79 in SSE 6.9 mph 10.3 mph 91% 0.00 in 0.00 W/m2
01:45 74.1 °F 71.0 °F 29.79 in SSE 3.5 mph 10.4 mph 90% 0.00 in 0.00 W/m2
01:46 74.1 °F 71.0 °F 29.79 in SSE 2.3 mph 10.3 mph 90% 0.00 in 0.00 W/m2
01:50 73.9 °F 70.8 °F 29.78 in SSE 3.5 mph 9.2 mph 90% 0.00 in 0.00 W/m2
01:51 74.0 °F 70.9 °F 29.78 in SSE 4.6 mph 9.2 mph 90% 0.00 in 0.00 W/m2
01:55 73.7 °F 70.9 °F 29.78 in South 4.6 mph 12.6 mph 91% 0.00 in 0.00 W/m2
01:56 73.8 °F 71.0 °F 29.78 in SE 2.3 mph 12.6 mph 91% 0.00 in 0.00 W/m2
02:00 73.5 °F 70.7 °F 29.78 in SSW 5.8 mph 8.1 mph 91% 0.00 in 0.00 W/m2
02:01 73.5 °F 70.7 °F 29.78 in SSW 4.6 mph 8.1 mph 91% 0.00 in 0.00 W/m2
02:05 73.4 °F 70.6 °F 29.78 in South 4.6 mph 10.4 mph 91% 0.00 in 0.00 W/m2
02:06 73.4 °F 70.6 °F 29.78 in South 6.9 mph 10.3 mph 91% 0.00 in 0.00 W/m2
02:10 73.2 °F 70.4 °F 29.78 in SSE 4.6 mph 11.5 mph 91% 0.00 in 0.00 W/m2
02:11 73.2 °F 70.4 °F 29.78 in SSE 4.6 mph 11.5 mph 91% 0.00 in 0.00 W/m2
02:15 73.1 °F 70.6 °F 29.78 in SSE 6.9 mph 9.2 mph 92% 0.00 in 0.00 W/m2
02:16 73.1 °F 70.6 °F 29.78 in SSE 3.4 mph 9.2 mph 92% 0.00 in 0.00 W/m2
02:20 72.9 °F 70.4 °F 29.78 in SE 5.8 mph 11.5 mph 92% 0.00 in 0.00 W/m2
02:21 72.9 °F 70.4 °F 29.78 in SE 5.8 mph 11.5 mph 92% 0.00 in 0.00 W/m2
02:25 72.9 °F 70.4 °F 29.77 in South 5.8 mph 9.2 mph 92% 0.00 in 0.00 W/m2
02:26 72.9 °F 70.4 °F 29.77 in SSW 8.1 mph 9.2 mph 92% 0.00 in 0.00 W/m2
02:30 72.7 °F 70.2 °F 29.77 in SSE 5.8 mph 10.4 mph 92% 0.00 in 0.00 W/m2
02:31 72.7 °F 70.2 °F 29.77 in South 5.8 mph 10.3 mph 92% 0.00 in 0.00 W/m2
02:35 72.6 °F 70.2 °F 29.78 in South 6.9 mph 10.4 mph 92% 0.00 in 0.00 W/m2
02:36 72.6 °F 70.2 °F 29.78 in South 6.9 mph 10.3 mph 92% 0.00 in 0.00 W/m2
02:40 72.5 °F 70.1 °F 29.78 in SSE 6.9 mph 9.2 mph 92% 0.00 in 0.00 W/m2
02:41 72.5 °F 70.1 °F 29.78 in SSE 8.1 mph 9.2 mph 92% 0.00 in 0.00 W/m2
02:45 72.3 °F 70.2 °F 29.77 in SE 1.1 mph 6.9 mph 93% 0.00 in 0.00 W/m2
02:46 72.3 °F 70.2 °F 29.77 in SE 1.1 mph 6.9 mph 93% 0.00 in 0.00 W/m2
02:50 72.2 °F 70.1 °F 29.77 in South 6.9 mph 6.9 mph 93% 0.00 in 0.00 W/m2
02:51 72.2 °F 70.1 °F 29.77 in South 6.9 mph 6.9 mph 93% 0.00 in 0.00 W/m2
02:55 72.1 °F 70.0 °F 29.78 in SSE 4.6 mph 6.9 mph 93% 0.00 in 0.00 W/m2
02:56 72.1 °F 70.0 °F 29.78 in SSE 4.6 mph 6.9 mph 93% 0.00 in 0.00 W/m2
03:01 72.0 °F 69.9 °F 29.78 in South 1.1 mph 6.9 mph 93% 0.00 in 0.00 W/m2
03:06 71.8 °F 69.7 °F 29.78 in South 3.4 mph 3.4 mph 93% 0.00 in 0.00 W/m2
03:11 71.7 °F 69.6 °F 29.78 in SSE 2.3 mph 2.3 mph 93% 0.00 in 0.00 W/m2
03:16 71.7 °F 69.9 °F 29.78 in South 3.4 mph 3.4 mph 94% 0.00 in 0.00 W/m2
03:22 71.6 °F 69.8 °F 29.78 in SSE 3.4 mph 4.6 mph 94% 0.00 in 0.00 W/m2
03:27 71.5 °F 69.7 °F 29.78 in Calm   4.6 mph 94% 0.00 in 0.00 W/m2
03:32 71.5 °F 69.7 °F 29.78 in South 4.6 mph 5.8 mph 94% 0.00 in 0.00 W/m2
03:37 71.4 °F 69.6 °F 29.78 in SSE 3.4 mph 3.4 mph 94% 0.00 in 0.00 W/m2
03:42 71.3 °F 69.5 °F 29.78 in SSE 1.1 mph 3.4 mph 94% 0.00 in 0.00 W/m2
03:47 71.3 °F 69.5 °F 29.77 in SSE 2.3 mph 4.6 mph 94% 0.00 in 0.00 W/m2
03:52 71.3 °F 69.5 °F 29.78 in South 5.8 mph 6.9 mph 94% 0.00 in 0.00 W/m2
03:57 71.3 °F 69.5 °F 29.77 in SSE 4.6 mph 6.9 mph 94% 0.00 in 0.00 W/m2
04:02 71.2 °F 69.4 °F 29.77 in SSE 3.4 mph 5.8 mph 94% 0.00 in 0.00 W/m2
04:07 71.2 °F 69.4 °F 29.77 in South 5.8 mph 6.9 mph 94% 0.00 in 0.00 W/m2
04:12 71.2 °F 69.4 °F 29.77 in SSE 4.6 mph 4.6 mph 94% 0.00 in 0.00 W/m2
04:17 71.2 °F 69.4 °F 29.77 in SE 1.1 mph 8.1 mph 94% 0.00 in 0.00 W/m2
04:22 71.2 °F 69.4 °F 29.77 in South 9.2 mph 11.5 mph 94% 0.00 in 0.00 W/m2
04:27 71.2 °F 69.4 °F 29.78 in SE 3.4 mph 3.4 mph 94% 0.00 in 0.00 W/m2
04:32 71.3 °F 69.5 °F 29.78 in South 6.9 mph 9.2 mph 94% 0.00 in 0.00 W/m2
04:37 71.3 °F 69.5 °F 29.78 in SSE 4.6 mph 5.8 mph 94% 0.00 in 0.00 W/m2
04:42 71.3 °F 69.5 °F 29.77 in SSE 4.6 mph 6.9 mph 94% 0.00 in 0.00 W/m2
04:47 71.4 °F 69.6 °F 29.77 in SSE 4.6 mph 9.2 mph 94% 0.00 in 0.00 W/m2
04:52 71.3 °F 69.5 °F 29.77 in South 4.6 mph 9.2 mph 94% 0.00 in 0.00 W/m2
04:57 71.4 °F 69.6 °F 29.77 in South 6.9 mph 6.9 mph 94% 0.00 in 0.00 W/m2
05:01 71.4 °F 69.6 °F 29.77 in South 6.9 mph 6.9 mph 94% 0.00 in 0.00 W/m2
05:06 71.4 °F 69.6 °F 29.77 in SSE 4.6 mph 5.8 mph 94% 0.00 in 0.00 W/m2
05:11 71.4 °F 69.6 °F 29.77 in South 6.9 mph 8.1 mph 94% 0.00 in 0.00 W/m2
05:16 71.3 °F 69.5 °F 29.77 in SSE 6.9 mph 6.9 mph 94% 0.00 in 0.00 W/m2
05:21 71.3 °F 69.5 °F 29.77 in South 8.1 mph 8.1 mph 94% 0.00 in 0.00 W/m2
05:27 71.3 °F 69.5 °F 29.77 in South 4.6 mph 4.6 mph 94% 0.00 in 0.00 W/m2
05:32 71.3 °F 69.5 °F 29.77 in South 9.2 mph 10.3 mph 94% 0.00 in 0.00 W/m2
05:37 71.3 °F 69.5 °F 29.77 in SSE 1.1 mph 8.1 mph 94% 0.00 in 0.00 W/m2
05:42 71.2 °F 69.4 °F 29.77 in South 5.8 mph 8.1 mph 94% 0.00 in 0.00 W/m2
05:47 71.2 °F 69.4 °F 29.76 in SSE 4.6 mph 6.9 mph 94% 0.00 in 0.00 W/m2
05:52 71.1 °F 69.3 °F 29.77 in SSE 4.6 mph 6.9 mph 94% 0.00 in 0.00 W/m2
05:57 71.0 °F 69.2 °F 29.77 in South 6.9 mph 9.2 mph 94% 0.00 in 0.00 W/m2
06:02 71.0 °F 69.2 °F 29.77 in South 6.9 mph 10.3 mph 94% 0.00 in 0.00 W/m2
06:07 70.9 °F 69.1 °F 29.77 in South 9.2 mph 10.3 mph 94% 0.00 in 5.00 W/m2
06:12 70.8 °F 69.0 °F 29.77 in South 4.6 mph 10.3 mph 94% 0.00 in 5.00 W/m2
06:17 70.7 °F 68.9 °F 29.76 in SSE 10.3 mph 11.5 mph 94% 0.00 in 5.00 W/m2
06:22 70.7 °F 68.9 °F 29.77 in SSE 8.1 mph 13.8 mph 94% 0.00 in 5.00 W/m2
06:27 70.7 °F 68.9 °F 29.77 in South 10.3 mph 10.3 mph 94% 0.00 in 9.00 W/m2
06:32 70.7 °F 68.9 °F 29.77 in SSE 11.5 mph 11.5 mph 94% 0.00 in 11.00 W/m2
06:37 70.7 °F 68.9 °F 29.77 in SSE 5.8 mph 9.2 mph 94% 0.00 in 9.00 W/m2
06:42 70.8 °F 69.0 °F 29.78 in SSE 8.1 mph 9.2 mph 94% 0.00 in 11.00 W/m2
06:47 70.9 °F 69.1 °F 29.78 in SSW 8.1 mph 10.3 mph 94% 0.00 in 25.00 W/m2
06:52 70.9 °F 69.1 °F 29.77 in SSE 4.6 mph 6.9 mph 94% 0.00 in 30.00 W/m2
06:57 70.9 °F 69.1 °F 29.77 in SSE 3.4 mph 8.1 mph 94% 0.00 in 33.00 W/m2
07:02 70.9 °F 69.1 °F 29.77 in South 8.1 mph 13.8 mph 94% 0.00 in 26.00 W/m2
07:07 70.9 °F 69.1 °F 29.77 in South 8.1 mph 12.6 mph 94% 0.00 in 54.00 W/m2
07:12 70.9 °F 69.1 °F 29.77 in South 9.2 mph 10.3 mph 94% 0.00 in 63.00 W/m2
07:17 71.0 °F 69.2 °F 29.77 in South 9.2 mph 9.2 mph 94% 0.00 in 46.00 W/m2
07:22 71.1 °F 69.0 °F 29.77 in SSE 8.1 mph 8.1 mph 93% 0.00 in 42.00 W/m2
07:27 71.1 °F 69.0 °F 29.77 in South 9.2 mph 9.2 mph 93% 0.00 in 44.00 W/m2
07:32 71.1 °F 69.0 °F 29.78 in South 8.1 mph 9.2 mph 93% 0.00 in 40.00 W/m2
07:37 71.2 °F 69.1 °F 29.78 in SSE 2.3 mph 5.8 mph 93% 0.00 in 56.00 W/m2
07:42 71.2 °F 69.1 °F 29.78 in South 6.9 mph 9.2 mph 93% 0.00 in 62.00 W/m2
07:47 71.3 °F 69.2 °F 29.78 in SSW 5.8 mph 9.2 mph 93% 0.00 in 60.00 W/m2
07:52 71.2 °F 69.1 °F 29.78 in SSE 5.8 mph 10.3 mph 93% 0.00 in 63.00 W/m2
07:57 71.3 °F 69.2 °F 29.78 in SE 2.3 mph 8.1 mph 93% 0.00 in 65.00 W/m2
08:02 71.4 °F 69.3 °F 29.78 in SE 4.6 mph 13.8 mph 93% 0.00 in 81.00 W/m2
08:07 71.4 °F 69.3 °F 29.78 in South 9.2 mph 9.2 mph 93% 0.00 in 90.00 W/m2
08:12 71.6 °F 69.8 °F 29.78 in South 3.4 mph 8.1 mph 94% 0.00 in 91.00 W/m2
08:17 71.6 °F 69.8 °F 29.78 in SSE 2.3 mph 10.3 mph 94% 0.00 in 84.00 W/m2
08:22 71.6 °F 69.5 °F 29.78 in SSE 9.2 mph 11.5 mph 93% 0.00 in 100.00 W/m2
08:27 71.6 °F 69.5 °F 29.78 in South 10.3 mph 10.3 mph 93% 0.00 in 116.00 W/m2
08:32 71.7 °F 69.9 °F 29.78 in South 1.1 mph 8.1 mph 94% 0.00 in 91.00 W/m2
08:37 71.7 °F 69.9 °F 29.78 in SSE 12.6 mph 12.6 mph 94% 0.00 in 69.00 W/m2
08:42 71.8 °F 70.0 °F 29.77 in South 5.8 mph 8.1 mph 94% 0.00 in 77.00 W/m2
08:47 71.8 °F 70.0 °F 29.77 in South 10.3 mph 17.2 mph 94% 0.00 in 114.00 W/m2
08:53 72.0 °F 69.9 °F 29.77 in SSW 8.1 mph 10.3 mph 93% 0.00 in 248.00 W/m2
08:58 72.5 °F 70.4 °F 29.76 in South 10.3 mph 13.8 mph 93% 0.00 in 216.00 W/m2
09:03 72.7 °F 70.2 °F 29.76 in SSW 8.1 mph 10.3 mph 92% 0.00 in 178.00 W/m2
09:08 72.7 °F 70.2 °F 29.75 in South 4.6 mph 16.1 mph 92% 0.00 in 163.00 W/m2
09:13 73.0 °F 70.5 °F 29.75 in South 12.6 mph 12.6 mph 92% 0.00 in 376.00 W/m2
09:18 73.4 °F 70.6 °F 29.75 in South 17.2 mph 17.2 mph 91% 0.00 in 244.00 W/m2
09:23 73.6 °F 70.5 °F 29.75 in SSW 9.2 mph 12.6 mph 90% 0.00 in 248.00 W/m2
09:28 73.6 °F 70.2 °F 29.75 in SSE 4.6 mph 19.5 mph 89% 0.00 in 353.00 W/m2
09:33 73.8 °F 70.4 °F 29.75 in SSW 10.3 mph 11.5 mph 89% 0.00 in 244.00 W/m2
09:38 74.1 °F 70.3 °F 29.75 in South 5.8 mph 14.9 mph 88% 0.00 in 230.00 W/m2
09:43 74.2 °F 70.4 °F 29.75 in SSW 6.9 mph 10.3 mph 88% 0.00 in 239.00 W/m2
09:48 74.3 °F 70.5 °F 29.75 in South 4.6 mph 11.5 mph 88% 0.00 in 251.00 W/m2
09:53 74.7 °F 70.9 °F 29.74 in SW 9.2 mph 16.1 mph 88% 0.00 in 390.00 W/m2
09:58 75.0 °F 70.9 °F 29.75 in WSW 6.9 mph 11.5 mph 87% 0.00 in 264.00 W/m2
10:03 75.1 °F 70.3 °F 29.75 in South 6.9 mph 20.7 mph 85% 0.00 in 232.00 W/m2
10:08 74.9 °F 70.1 °F 29.75 in SSW 12.6 mph 13.8 mph 85% 0.00 in 221.00 W/m2
10:13 75.4 °F 70.6 °F 29.75 in WSW 10.3 mph 13.8 mph 85% 0.00 in 401.00 W/m2
10:18 75.5 °F 70.3 °F 29.75 in WSW 9.2 mph 18.4 mph 84% 0.00 in 346.00 W/m2
10:23 76.0 °F 70.8 °F 29.75 in WSW 11.5 mph 20.7 mph 84% 0.00 in 399.00 W/m2
10:28 76.3 °F 70.8 °F 29.75 in SW 9.2 mph 17.2 mph 83% 0.00 in 246.00 W/m2
10:33 76.0 °F 70.8 °F 29.75 in SSW 4.6 mph 14.9 mph 84% 0.00 in 341.00 W/m2
10:39 75.7 °F 70.5 °F 29.75 in SW 4.6 mph 16.1 mph 84% 0.00 in 165.00 W/m2
10:44 75.1 °F 69.9 °F 29.75 in SSW 8.1 mph 16.1 mph 84% 0.00 in 221.00 W/m2
10:49 75.0 °F 70.2 °F 29.75 in SW 10.3 mph 14.9 mph 85% 0.00 in 236.00 W/m2
10:54 74.9 °F 70.4 °F 29.75 in SW 6.9 mph 10.3 mph 86% 0.00 in 290.00 W/m2
10:59 75.4 °F 70.9 °F 29.75 in SSW 6.9 mph 12.6 mph 86% 0.00 in 297.00 W/m2
11:04 75.5 °F 71.0 °F 29.75 in SW 6.9 mph 14.9 mph 86% 0.00 in 352.00 W/m2
11:09 75.7 °F 70.9 °F 29.75 in SW 10.3 mph 14.9 mph 85% 0.00 in 364.00 W/m2
11:14 75.8 °F 71.0 °F 29.75 in South 6.9 mph 14.9 mph 85% 0.00 in 225.00 W/m2
11:19 75.7 °F 70.9 °F 29.75 in SW 5.8 mph 16.1 mph 85% 0.00 in 253.00 W/m2
11:24 75.9 °F 71.1 °F 29.75 in SW 6.9 mph 14.9 mph 85% 0.00 in 253.00 W/m2
11:29 75.9 °F 71.1 °F 29.75 in SSW 8.1 mph 16.1 mph 85% 0.00 in 279.00 W/m2
11:34 76.2 °F 71.4 °F 29.75 in SSW 6.9 mph 16.1 mph 85% 0.00 in 255.00 W/m2
11:39 76.4 °F 71.2 °F 29.75 in WSW 8.1 mph 17.2 mph 84% 0.00 in 295.00 W/m2
11:44 76.2 °F 71.0 °F 29.75 in SSW 6.9 mph 16.1 mph 84% 0.00 in 193.00 W/m2
11:49 75.9 °F 70.7 °F 29.75 in SW 14.9 mph 20.7 mph 84% 0.00 in 260.00 W/m2
11:54 75.9 °F 71.1 °F 29.75 in SW 13.8 mph 20.7 mph 85% 0.00 in 381.00 W/m2
12:00 76.1 °F 70.9 °F 29.75 in SSW 11.5 mph 17.2 mph 84% 0.00 in 216.00 W/m2
12:05 76.0 °F 71.2 °F 29.75 in West 10.3 mph 17.2 mph 85% 0.00 in 434.00 W/m2
12:10 76.7 °F 71.5 °F 29.74 in SSW 11.5 mph 19.5 mph 84% 0.00 in 766.00 W/m2
12:15 78.0 °F 72.1 °F 29.74 in WSW 17.2 mph 19.5 mph 82% 0.00 in 916.00 W/m2
12:20 78.7 °F 72.0 °F 29.74 in SW 4.6 mph 18.4 mph 80% 0.00 in 329.00 W/m2
12:25 78.5 °F 71.8 °F 29.74 in SSW 16.1 mph 17.2 mph 80% 0.00 in 492.00 W/m2
12:30 79.5 °F 72.4 °F 29.74 in SW 14.9 mph 19.5 mph 79% 0.00 in 1002.00 W/m2
12:35 79.7 °F 71.9 °F 29.74 in West 16.1 mph 21.9 mph 77% 0.00 in 684.00 W/m2
12:40 78.7 °F 71.3 °F 29.74 in WSW 10.3 mph 20.7 mph 78% 0.00 in 1104.00 W/m2
12:45 78.8 °F 71.4 °F 29.74 in WSW 11.5 mph 19.5 mph 78% 0.00 in 322.00 W/m2
12:50 79.0 °F 71.2 °F 29.74 in West 13.8 mph 20.7 mph 77% 0.00 in 947.00 W/m2
12:55 79.3 °F 71.5 °F 29.74 in West 14.9 mph 17.2 mph 77% 0.00 in 550.00 W/m2
13:00 78.8 °F 71.0 °F 29.74 in SW 11.5 mph 18.4 mph 77% 0.00 in 563.00 W/m2
13:05 78.5 °F 71.1 °F 29.74 in WSW 9.2 mph 19.5 mph 78% 0.00 in 315.00 W/m2
13:10 78.4 °F 71.3 °F 29.74 in SSW 6.9 mph 18.4 mph 79% 0.00 in 380.00 W/m2
13:15 79.8 °F 71.9 °F 29.74 in SSW 10.3 mph 17.2 mph 77% 0.00 in 1078.00 W/m2
13:20 79.6 °F 71.4 °F 29.73 in SW 19.5 mph 19.5 mph 76% 0.00 in 573.00 W/m2
13:25 80.0 °F 72.2 °F 29.73 in South 6.9 mph 16.1 mph 77% 0.00 in 926.00 W/m2
13:30 80.4 °F 71.8 °F 29.73 in SSW 9.2 mph 21.9 mph 75% 0.00 in 918.00 W/m2
13:35 80.3 °F 72.1 °F 29.73 in SSW 10.3 mph 16.1 mph 76% 0.00 in 772.00 W/m2
13:40 80.0 °F 72.2 °F 29.73 in South 9.2 mph 17.2 mph 77% 0.00 in 376.00 W/m2
13:45 80.4 °F 72.2 °F 29.73 in SSW 6.9 mph 20.7 mph 76% 0.00 in 867.00 W/m2
13:50 80.5 °F 71.8 °F 29.73 in WSW 10.3 mph 18.4 mph 75% 0.00 in 585.00 W/m2
13:55 79.6 °F 71.4 °F 29.73 in SW 9.2 mph 20.7 mph 76% 0.00 in 362.00 W/m2
14:00 79.5 °F 71.3 °F 29.73 in SSW 11.5 mph 18.4 mph 76% 0.00 in 285.00 W/m2
14:05 79.2 °F 71.4 °F 29.73 in SSW 19.5 mph 19.5 mph 77% 0.00 in 230.00 W/m2
14:10 78.7 °F 70.9 °F 29.73 in SW 4.6 mph 17.2 mph 77% 0.00 in 125.00 W/m2
14:15 78.4 °F 71.0 °F 29.73 in West 5.8 mph 17.2 mph 78% 0.00 in 142.00 W/m2
14:20 79.0 °F 71.9 °F 29.73 in SW 11.5 mph 16.1 mph 79% 0.00 in 842.00 W/m2
14:26 80.7 °F 72.4 °F 29.73 in SSW 8.1 mph 19.5 mph 76% 0.00 in 846.00 W/m2
14:31 81.4 °F 72.3 °F 29.73 in WSW 17.2 mph 18.4 mph 74% 0.00 in 830.00 W/m2
14:36 81.9 °F 72.4 °F 29.72 in SW 11.5 mph 20.7 mph 73% 0.00 in 935.00 W/m2
14:41 80.8 °F 71.3 °F 29.73 in SW 4.6 mph 17.2 mph 73% 0.00 in 418.00 W/m2
14:46 80.8 °F 71.3 °F 29.72 in WSW 11.5 mph 18.4 mph 73% 0.00 in 253.00 W/m2
14:51 80.2 °F 71.2 °F 29.73 in SSW 10.3 mph 18.4 mph 74% 0.00 in 255.00 W/m2
14:56 79.9 °F 70.5 °F 29.73 in WSW 11.5 mph 19.5 mph 73% 0.00 in 272.00 W/m2
15:01 79.8 °F 70.0 °F 29.73 in SW 11.5 mph 23.0 mph 72% 0.00 in 392.00 W/m2
15:06 80.1 °F 69.9 °F 29.73 in WSW 12.6 mph 19.5 mph 71% 0.00 in 353.00 W/m2
15:11 81.1 °F 70.8 °F 29.73 in WSW 18.4 mph 18.4 mph 71% 0.00 in 443.00 W/m2
15:16 80.7 °F 69.2 °F 29.73 in WSW 14.9 mph 21.9 mph 68% 0.00 in 246.00 W/m2
15:21 80.9 °F 70.2 °F 29.73 in SW 14.9 mph 16.1 mph 70% 0.00 in 403.00 W/m2
15:26 81.5 °F 70.4 °F 29.73 in SSW 10.3 mph 20.7 mph 69% 0.00 in 914.00 W/m2
15:31 82.0 °F 70.4 °F 29.73 in West 17.2 mph 20.7 mph 68% 0.00 in 905.00 W/m2
15:36 82.1 °F 71.3 °F 29.72 in WSW 12.6 mph 13.8 mph 70% 0.00 in 860.00 W/m2
15:41 82.8 °F 70.3 °F 29.72 in WSW 8.1 mph 20.7 mph 66% 0.00 in 197.00 W/m2
15:46 82.9 °F 70.8 °F 29.72 in WSW 16.1 mph 18.4 mph 67% 0.00 in 805.00 W/m2
15:51 82.4 °F 69.9 °F 29.72 in West 8.1 mph 10.3 mph 66% 0.00 in 156.00 W/m2
15:56 81.8 °F 70.2 °F 29.72 in West 14.9 mph 14.9 mph 68% 0.00 in 907.00 W/m2
15:58 81.9 °F 69.9 °F 29.72 in WSW 20.7 mph 20.7 mph 67% 0.00 in 907.00 W/m2
16:03 81.9 °F 69.9 °F 29.72 in WSW 9.2 mph 18.4 mph 67% 0.00 in 209.00 W/m2
16:08 81.3 °F 69.3 °F 29.72 in WNW 10.3 mph 16.1 mph 67% 0.00 in 241.00 W/m2
16:13 81.2 °F 70.1 °F 29.73 in SW 3.4 mph 17.2 mph 69% 0.00 in 274.00 W/m2
16:18 81.9 °F 70.7 °F 29.72 in SW 17.2 mph 17.2 mph 69% 0.00 in 515.00 W/m2
16:23 81.9 °F 70.3 °F 29.72 in WSW 10.3 mph 17.2 mph 68% 0.00 in 540.00 W/m2
16:28 81.8 °F 70.2 °F 29.72 in West 13.8 mph 16.1 mph 68% 0.00 in 403.00 W/m2
16:33 81.6 °F 70.4 °F 29.72 in WSW 12.6 mph 14.9 mph 69% 0.00 in 376.00 W/m2
16:38 81.2 °F 69.2 °F 29.72 in West 14.9 mph 18.4 mph 67% 0.00 in 385.00 W/m2
16:43 80.9 °F 69.8 °F 29.73 in SW 9.2 mph 21.9 mph 69% 0.00 in 311.00 W/m2
16:48 80.7 °F 69.6 °F 29.73 in West 14.9 mph 17.2 mph 69% 0.00 in 353.00 W/m2
16:53 80.7 °F 69.6 °F 29.73 in West 14.9 mph 16.1 mph 69% 0.00 in 396.00 W/m2
16:58 80.7 °F 69.6 °F 29.73 in WNW 9.2 mph 14.9 mph 69% 0.00 in 615.00 W/m2
17:03 81.2 °F 69.2 °F 29.73 in WSW 11.5 mph 16.1 mph 67% 0.00 in 425.00 W/m2
17:08 81.3 °F 69.3 °F 29.73 in SW 14.9 mph 19.5 mph 67% 0.00 in 461.00 W/m2
17:13 81.2 °F 69.6 °F 29.73 in SW 11.5 mph 14.9 mph 68% 0.00 in 353.00 W/m2
17:18 80.8 °F 69.7 °F 29.73 in West 10.3 mph 16.1 mph 69% 0.00 in 345.00 W/m2
17:23 80.7 °F 69.2 °F 29.73 in West 16.1 mph 17.2 mph 68% 0.00 in 315.00 W/m2
17:25 80.6 °F 69.1 °F 29.73 in WSW 8.1 mph 17.2 mph 68% 0.00 in 202.00 W/m2
17:30 80.6 °F 69.1 °F 29.73 in West 11.5 mph 16.1 mph 68% 0.00 in 427.00 W/m2
17:35 80.9 °F 70.2 °F 29.73 in WSW 5.8 mph 11.5 mph 70% 0.00 in 454.00 W/m2
17:40 81.0 °F 69.4 °F 29.73 in West 10.3 mph 16.1 mph 68% 0.00 in 424.00 W/m2
17:45 81.1 °F 70.0 °F 29.73 in West 5.8 mph 10.3 mph 69% 0.00 in 403.00 W/m2
17:50 81.4 °F 69.8 °F 29.73 in West 5.8 mph 16.1 mph 68% 0.00 in 376.00 W/m2
17:55 81.2 °F 69.6 °F 29.73 in WSW 5.8 mph 13.8 mph 68% 0.00 in 343.00 W/m2
18:00 81.2 °F 69.6 °F 29.73 in WSW 10.3 mph 16.1 mph 68% 0.00 in 316.00 W/m2
18:05 80.9 °F 69.4 °F 29.73 in WSW 10.3 mph 14.9 mph 68% 0.00 in 290.00 W/m2
18:11 80.3 °F 69.2 °F 29.74 in WSW 9.2 mph 12.6 mph 69% 0.00 in 292.00 W/m2
18:16 80.2 °F 69.1 °F 29.73 in SW 9.2 mph 13.8 mph 69% 0.00 in 269.00 W/m2
18:21 79.9 °F 68.8 °F 29.73 in SW 9.2 mph 13.8 mph 69% 0.00 in 91.00 W/m2
18:26 79.5 °F 69.3 °F 29.73 in SW 3.4 mph 8.1 mph 71% 0.00 in 86.00 W/m2
18:31 79.4 °F 69.2 °F 29.73 in WSW 11.5 mph 11.5 mph 71% 0.00 in 49.00 W/m2
18:36 79.7 °F 69.5 °F 29.73 in WSW 6.9 mph 10.3 mph 71% 0.00 in 65.00 W/m2
18:41 79.5 °F 69.3 °F 29.73 in WSW 8.1 mph 9.2 mph 71% 0.00 in 37.00 W/m2
18:46 79.1 °F 69.3 °F 29.73 in SSW 4.6 mph 8.1 mph 72% 0.00 in 53.00 W/m2
18:51 79.0 °F 70.0 °F 29.73 in SW 4.6 mph 6.9 mph 74% 0.00 in 40.00 W/m2
18:56 78.9 °F 69.9 °F 29.73 in Calm   6.9 mph 74% 0.00 in 46.00 W/m2
19:01 78.7 °F 69.7 °F 29.73 in SSW 6.9 mph 6.9 mph 74% 0.00 in 37.00 W/m2
19:06 78.6 °F 70.0 °F 29.73 in WSW 4.6 mph 9.2 mph 75% 0.00 in 93.00 W/m2
19:11 78.7 °F 70.1 °F 29.74 in WSW 5.8 mph 6.9 mph 75% 0.00 in 25.00 W/m2
19:16 78.3 °F 69.7 °F 29.74 in WSW 1.1 mph 8.1 mph 75% 0.00 in 19.00 W/m2
19:21 77.9 °F 69.7 °F 29.74 in SW 3.4 mph 4.6 mph 76% 0.00 in 21.00 W/m2
19:26 77.6 °F 69.4 °F 29.74 in SW 3.4 mph 4.6 mph 76% 0.00 in 14.00 W/m2
19:31 77.2 °F 69.4 °F 29.74 in SW 4.6 mph 5.8 mph 77% 0.00 in 11.00 W/m2
19:36 76.9 °F 69.2 °F 29.74 in WSW 1.1 mph 3.4 mph 77% 0.00 in 7.00 W/m2
19:41 76.5 °F 69.5 °F 29.74 in SSW 2.3 mph 2.3 mph 79% 0.00 in 5.00 W/m2
19:46 76.2 °F 69.2 °F 29.74 in SW 2.3 mph 2.3 mph 79% 0.00 in 0.00 W/m2
19:51 76.1 °F 69.1 °F 29.74 in SW 3.4 mph 3.4 mph 79% 0.00 in 0.00 W/m2
19:56 75.7 °F 69.1 °F 29.74 in SW 4.6 mph 4.6 mph 80% 0.00 in 0.00 W/m2
20:01 75.4 °F 69.2 °F 29.74 in South 2.3 mph 4.6 mph 81% 0.00 in 0.00 W/m2
20:06 75.3 °F 69.1 °F 29.74 in SSW 3.4 mph 4.6 mph 81% 0.00 in 0.00 W/m2
20:11 75.2 °F 69.0 °F 29.75 in SSW 2.3 mph 3.4 mph 81% 0.00 in 0.00 W/m2
20:17 75.1 °F 68.9 °F 29.75 in SSW 2.3 mph 3.4 mph 81% 0.00 in 0.00 W/m2
20:22 75.1 °F 69.2 °F 29.75 in SW 2.3 mph 3.4 mph 82% 0.00 in 0.00 W/m2
peotoneweather.com
Compliments of Weather Underground - 1.75 mb